KSNY

Sidney Municipal / Lloyd W Carr Field Airport

Sidney, Nebraska, USA
KSNY 210907Z 2109/2206 12008KT 4SM -RA BR OVC002 FM211200 09007KT 4SM -SN BR OVC004 FM211500 08008KT 3SM -RASN BR OVC008 FM211800 09005KT 6SM -RA OVC012 FM220000 18008KT P6SM BKN015
Issued Valid From Valid To
Apr-21 @ 09:07 UTC
(26 minutes ago)
Apr-21 @ 09:00 UTC
(33 minutes ago)
Apr-22 @ 06:00 UTC
(in 20 hours)
Apr-21 @ 09:00 to Apr-21 @ 12:00
KSNY 210907Z 2109/2206 12008KT 4SM -RA BR OVC002
Wind Visibility Clouds Conditions
120° at 8 knots 4 miles
  • Overcast at 200' AGL
  • Light Rain
  • Mist
From Apr-21 @ 12:00 to Apr-21 @ 15:00
FM211200 09007KT 4SM -SN BR OVC004
Wind Visibility Clouds Conditions
90° at 7 knots 4 miles
  • Overcast at 400' AGL
  • Light Snow
  • Mist
From Apr-21 @ 15:00 to Apr-21 @ 18:00
FM211500 08008KT 3SM -RASN BR OVC008
Wind Visibility Clouds Conditions
80° at 8 knots 3 miles
  • Overcast at 800' AGL
  • Light Rain
  • Light Snow
  • Mist
From Apr-21 @ 18:00 to Apr-22 @ 00:00
FM211800 09005KT 6SM -RA OVC012
Wind Visibility Clouds Conditions
90° at 5 knots 6 miles
  • Overcast at 1,200' AGL
  • Light Rain
From Apr-22 @ 00:00 to Apr-22 @ 06:00
FM220000 18008KT P6SM BKN015
Wind Visibility Clouds
180° at 8 knots Greater than 6 miles
  • Broken at 1,500' AGL
KSNY 210907Z 2109/2206 12008KT 4SM -RA BR OVC002 FM211200 09007KT 4SM -SN BR OVC004 FM211500 08008KT 3SM -RASN BR OVC008 FM211800 09005KT 6SM -RA OVC012 FM220000 18008KT P6SM BKN015
Issued Apr-21 @ 09:07 UTC
(26 minutes ago)
Valid From Apr-21 @ 09:00 UTC
(33 minutes ago)
Valid To Apr-22 @ 06:00 UTC
(in 20 hours)
Apr-21 @ 09:00 - Apr-21 @ 12:00
Wind Visibility
120° at 8 knots 4 miles
Clouds
  • Overcast at 200' AGL
Conditions
  • Light Rain
  • Mist
From Apr-21 @ 12:00 - Apr-21 @ 15:00
Wind Visibility
90° at 7 knots 4 miles
Clouds
  • Overcast at 400' AGL
Conditions
  • Light Snow
  • Mist
From Apr-21 @ 15:00 - Apr-21 @ 18:00
Wind Visibility
80° at 8 knots 3 miles
Clouds
  • Overcast at 800' AGL
Conditions
  • Light Rain
  • Light Snow
  • Mist
From Apr-21 @ 18:00 - Apr-22 @ 00:00
Wind Visibility
90° at 5 knots 6 miles
Clouds
  • Overcast at 1,200' AGL
Conditions
  • Light Rain
From Apr-22 @ 00:00 - Apr-22 @ 06:00
Wind Visibility
180° at 8 knots Greater than 6 miles
Clouds
  • Broken at 1,500' AGL